Time;durP1;ratioP1;P1;durP2;ratioP2;P2;SDS_P1;SDS_P2;PMS_P1;PMS_P2;Temp;Humidity;BMP_temperature;BMP_pressure;BME280_temperature;BME280_humidity;BME280_pressure;Samples;Min_cycle;Max_cycle;Signal;HPM_P1;HPM_P2
2022/04/22 00:01:28;;;;;;;7.35;3.63;;;13.40;99.90;;;;;;5103617;28;20032;-60
2022/04/22 00:03:55;;;;;;;6.05;3.90;;;13.30;99.90;;;;;;5120989;28;20410;-61
2022/04/22 00:06:21;;;;;;;4.95;3.97;;;13.30;99.90;;;;;;5119929;28;20111;-60
2022/04/22 00:08:47;;;;;;;4.55;3.42;;;13.20;99.90;;;;;;5120612;28;20383;-61
2022/04/22 00:11:31;;;;;;;8.05;4.18;;;13.20;99.90;;;;;;5103124;28;20131;-62
2022/04/22 00:14:02;;;;;;;4.22;3.63;;;13.10;99.90;;;;;;5120491;28;20032;-61
2022/04/22 00:16:32;;;;;;;5.88;3.85;;;13.10;99.90;;;;;;5119686;28;20100;-62
2022/04/22 00:18:59;;;;;;;7.03;3.97;;;13.00;99.90;;;;;;5119535;28;20096;-60
2022/04/22 00:21:26;;;;;;;5.53;3.40;;;12.90;99.90;;;;;;5120650;28;20104;-61
2022/04/22 00:23:52;;;;;;;4.20;3.60;;;13.00;99.90;;;;;;5120373;28;20063;-60
2022/04/22 00:26:19;;;;;;;6.57;3.60;;;12.80;99.90;;;;;;5119524;28;20032;-61
2022/04/22 00:28:45;;;;;;;6.00;3.47;;;12.80;99.90;;;;;;5119598;28;20019;-61
2022/04/22 00:31:11;;;;;;;6.55;3.85;;;12.80;99.90;;;;;;5120210;28;20023;-62
2022/04/22 00:33:37;;;;;;;4.25;3.33;;;12.70;99.90;;;;;;5119483;28;20046;-61
2022/04/22 00:36:03;;;;;;;8.23;3.85;;;12.60;99.90;;;;;;5120287;28;20026;-61
2022/04/22 00:38:29;;;;;;;4.30;3.88;;;12.70;99.90;;;;;;5120312;28;20342;-61
2022/04/22 00:40:56;;;;;;;6.07;3.83;;;12.70;99.90;;;;;;5119999;28;20032;-61
2022/04/22 00:43:24;;;;;;;5.00;3.92;;;12.70;99.90;;;;;;5119270;28;20023;-62
2022/04/22 00:45:51;;;;;;;5.70;4.30;;;12.70;99.90;;;;;;5119642;28;20048;-61
2022/04/22 00:48:18;;;;;;;7.18;3.72;;;12.60;99.90;;;;;;5119913;28;20299;-61
2022/04/22 00:50:45;;;;;;;6.13;4.13;;;12.60;99.90;;;;;;5119058;28;20088;-62
2022/04/22 00:53:11;;;;;;;6.03;4.20;;;12.50;99.90;;;;;;5119038;28;20260;-62
2022/04/22 00:55:42;;;;;;;6.22;4.32;;;12.50;99.90;;;;;;5119646;28;20019;-61
2022/04/22 00:58:09;;;;;;;5.57;4.13;;;12.40;99.90;;;;;;5119767;28;20038;-61
2022/04/22 01:00:36;;;;;;;5.18;4.10;;;12.30;99.90;;;;;;5119648;28;20119;-61
2022/04/22 01:03:03;;;;;;;5.70;4.13;;;12.40;99.90;;;;;;5119652;28;20034;-62
2022/04/22 01:11:00;;;;;;;6.65;4.50;;;12.40;99.90;;;;;;5119715;28;20126;-62
2022/04/22 01:13:26;;;;;;;6.93;4.57;;;12.40;99.90;;;;;;5118671;28;20035;-63
2022/04/22 01:15:52;;;;;;;6.97;4.55;;;12.20;99.90;;;;;;5118587;28;20039;-62
2022/04/22 01:18:18;;;;;;;6.20;4.40;;;12.20;99.90;;;;;;5119309;28;20050;-60
2022/04/22 01:20:44;;;;;;;6.20;4.80;;;12.10;99.90;;;;;;5118424;28;20318;-61
2022/04/22 01:23:10;;;;;;;7.53;4.47;;;12.20;99.90;;;;;;5119251;28;20042;-61
2022/04/22 01:25:36;;;;;;;7.63;5.00;;;12.20;99.90;;;;;;5119134;28;20036;-61
2022/04/22 01:28:02;;;;;;;7.75;5.30;;;12.20;99.90;;;;;;5118315;28;20055;-61
2022/04/22 01:30:29;;;;;;;7.72;5.30;;;12.20;99.90;;;;;;5119049;28;20027;-61
2022/04/22 01:32:57;;;;;;;8.27;5.28;;;12.10;99.90;;;;;;5118964;28;20031;-61
2022/04/22 01:35:24;;;;;;;6.38;4.95;;;12.00;99.90;;;;;;5118127;28;20122;-61
2022/04/22 01:37:50;;;;;;;6.55;5.00;;;12.00;99.90;;;;;;5118116;28;20043;-63
2022/04/22 01:40:17;;;;;;;8.25;5.30;;;11.90;99.90;;;;;;5101305;28;20051;-61
2022/04/22 01:42:43;;;;;;;6.10;5.45;;;12.00;99.90;;;;;;5118807;28;20023;-61
2022/04/22 01:45:12;;;;;;;6.63;5.93;;;12.00;99.90;;;;;;5118583;28;20045;-62
2022/04/22 01:47:38;;;;;;;6.55;5.88;;;12.00;99.90;;;;;;5118611;28;20044;-61
2022/04/22 01:50:05;;;;;;;10.15;5.78;;;11.90;99.90;;;;;;5118724;28;20046;-61
2022/04/22 01:52:30;;;;;;;9.02;5.85;;;11.80;99.90;;;;;;5118578;28;20028;-61
2022/04/22 01:54:56;;;;;;;7.05;6.10;;;11.70;99.90;;;;;;5118543;28;20028;-61
2022/04/22 01:57:23;;;;;;;7.95;5.90;;;11.60;99.90;;;;;;5118070;28;20399;-64
2022/04/22 01:59:49;;;;;;;9.35;5.95;;;11.60;99.90;;;;;;5118422;28;20059;-62
2022/04/22 02:02:16;;;;;;;6.78;5.80;;;11.60;99.90;;;;;;5117866;28;20027;-61
2022/04/22 02:04:43;;;;;;;10.20;6.50;;;11.50;99.90;;;;;;5117794;28;20027;-60
2022/04/22 02:07:09;;;;;;;9.30;6.38;;;11.50;99.90;;;;;;5118199;28;20295;-60
2022/04/22 02:09:35;;;;;;;6.97;6.28;;;11.60;99.90;;;;;;5117505;28;20031;-63
2022/04/22 02:12:02;;;;;;;9.48;7.00;;;11.60;99.90;;;;;;5118216;28;20032;-61
2022/04/22 02:14:29;;;;;;;8.50;6.25;;;11.50;99.90;;;;;;5118801;28;20383;-61
2022/04/22 02:16:56;;;;;;;9.10;6.60;;;11.50;99.90;;;;;;5117426;28;20085;-61
2022/04/22 02:19:21;;;;;;;8.85;6.78;;;11.50;99.90;;;;;;5117327;28;20356;-61
2022/04/22 02:21:49;;;;;;;7.97;6.50;;;11.40;99.90;;;;;;5118069;28;20118;-62
2022/04/22 02:24:15;;;;;;;9.57;7.45;;;11.40;99.90;;;;;;5117246;28;20123;-62
2022/04/22 02:29:26;;;;;;;12.75;7.25;;;11.40;99.90;;;;;;5117180;28;20110;-62
2022/04/22 02:31:52;;;;;;;9.07;7.60;;;11.40;99.90;;;;;;5100674;28;20039;-61
2022/04/22 02:34:22;;;;;;;10.05;7.95;;;11.40;99.90;;;;;;5117853;28;20400;-62
2022/04/22 02:36:49;;;;;;;10.82;8.15;;;11.30;99.90;;;;;;5117189;28;20353;-62
2022/04/22 02:39:15;;;;;;;10.55;7.80;;;11.20;99.90;;;;;;5118037;28;20337;-62
2022/04/22 02:47:10;;;;;;;11.45;8.10;;;11.20;99.90;;;;;;5117861;28;20036;-61
2022/04/22 02:49:35;;;;;;;10.20;8.82;;;11.00;99.90;;;;;;5117583;28;20406;-62
2022/04/22 02:52:01;;;;;;;12.00;8.98;;;11.00;99.90;;;;;;5117523;28;20027;-62
2022/04/22 02:54:30;;;;;;;10.65;8.38;;;11.10;99.90;;;;;;5117606;28;20024;-62
2022/04/22 02:56:57;;;;;;;10.60;8.95;;;11.20;99.90;;;;;;5116886;28;20035;-62
2022/04/22 02:59:24;;;;;;;11.57;8.93;;;11.10;99.90;;;;;;5117517;28;20107;-61
2022/04/22 03:01:50;;;;;;;10.85;9.55;;;11.20;99.90;;;;;;5117502;28;20459;-61
2022/04/22 03:04:16;;;;;;;14.23;9.13;;;11.10;99.90;;;;;;5117692;28;20371;-62
2022/04/22 03:06:42;;;;;;;14.85;10.05;;;11.10;99.90;;;;;;5099810;28;20117;-61
2022/04/22 03:09:08;;;;;;;12.65;8.95;;;11.00;99.90;;;;;;5116545;28;20119;-62
2022/04/22 03:11:34;;;;;;;13.35;10.13;;;11.00;99.90;;;;;;5117395;28;20299;-62
2022/04/22 03:14:03;;;;;;;13.82;9.35;;;11.00;99.90;;;;;;5117820;28;20032;-62
2022/04/22 03:16:29;;;;;;;12.48;9.57;;;10.90;99.90;;;;;;5120912;28;20331;-61
2022/04/22 03:18:55;;;;;;;14.57;9.63;;;10.90;99.90;;;;;;5121459;28;20024;-62
2022/04/22 03:21:22;;;;;;;13.57;10.05;;;10.80;99.90;;;;;;5121491;28;20035;-61
2022/04/22 03:23:49;;;;;;;14.40;10.00;;;10.80;99.90;;;;;;5120751;28;20031;-60
2022/04/22 03:26:15;;;;;;;13.90;10.70;;;10.90;99.90;;;;;;5120527;28;20028;-61
2022/04/22 03:28:41;;;;;;;13.52;10.25;;;10.90;99.90;;;;;;5121394;28;20019;-61
2022/04/22 03:31:07;;;;;;;15.65;10.38;;;10.90;99.90;;;;;;5121355;28;20070;-62
2022/04/22 03:33:36;;;;;;;14.70;10.60;;;10.80;99.90;;;;;;5120678;28;20055;-61
2022/04/22 03:36:03;;;;;;;16.58;11.35;;;10.90;99.90;;;;;;5120153;28;20035;-61
2022/04/22 03:38:29;;;;;;;12.90;9.73;;;10.80;99.90;;;;;;5120486;28;20027;-62
2022/04/22 03:40:55;;;;;;;11.40;10.20;;;10.70;99.90;;;;;;5121252;28;20036;-61
2022/04/22 03:43:23;;;;;;;12.27;10.40;;;10.70;99.90;;;;;;5121138;28;20027;-61
2022/04/22 03:45:49;;;;;;;13.02;10.30;;;10.60;99.90;;;;;;5120839;28;20046;-61
2022/04/22 03:48:15;;;;;;;14.00;10.63;;;10.60;99.90;;;;;;5121020;28;20020;-60
2022/04/22 03:50:41;;;;;;;13.18;10.52;;;10.60;99.90;;;;;;5121100;28;20410;-60
2022/04/22 03:53:11;;;;;;;13.40;9.88;;;10.60;99.90;;;;;;5120308;28;20440;-60
2022/04/22 03:55:38;;;;;;;13.10;10.68;;;10.50;99.90;;;;;;5120104;28;20015;-61
2022/04/22 03:58:11;;;;;;;13.88;10.32;;;10.50;99.90;;;;;;5120863;28;20031;-60
2022/04/22 04:00:40;;;;;;;;;;;10.30;99.90;;;;;;5120604;28;20036;-60
2022/04/22 04:03:11;;;;;;;14.32;10.95;;;10.40;99.90;;;;;;5121139;28;19930;-60
2022/04/22 04:05:38;;;;;;;16.05;10.98;;;10.40;99.90;;;;;;5120891;28;20084;-60
2022/04/22 04:08:04;;;;;;;14.00;11.30;;;10.30;99.90;;;;;;5120138;28;20114;-61
2022/04/22 04:15:59;;;;;;;15.23;10.60;;;10.30;99.90;;;;;;5119915;28;20055;-60
2022/04/22 04:18:51;;;;;;;12.57;11.00;;;10.20;99.90;;;;;;5120422;28;20315;-61
2022/04/22 04:24:02;;;;;;;13.32;10.75;;;10.20;99.90;;;;;;5119629;28;20458;-61
2022/04/22 04:26:28;;;;;;;14.27;10.73;;;10.20;99.90;;;;;;5119141;28;20034;-61
2022/04/22 04:28:54;;;;;;;13.38;10.52;;;10.20;99.90;;;;;;5120241;28;20394;-61
2022/04/22 04:31:20;;;;;;;13.40;10.95;;;10.20;99.90;;;;;;5120210;28;20052;-61
2022/04/22 04:33:49;;;;;;;14.60;10.90;;;10.20;99.90;;;;;;5120396;28;20034;-62
2022/04/22 04:36:15;;;;;;;18.58;11.45;;;10.20;99.90;;;;;;5120116;28;20028;-62
2022/04/22 04:38:42;;;;;;;13.13;10.77;;;10.20;99.90;;;;;;5119371;28;20111;-61
2022/04/22 04:41:09;;;;;;;15.73;11.80;;;10.30;99.90;;;;;;5119523;28;20402;-61
2022/04/22 04:43:38;;;;;;;17.30;11.98;;;10.30;99.90;;;;;;5119982;28;20031;-61
2022/04/22 04:46:04;;;;;;;13.88;11.20;;;10.30;99.90;;;;;;5119653;28;20040;-61
2022/04/22 04:48:30;;;;;;;15.43;11.68;;;10.30;99.90;;;;;;5119583;28;20031;-61
2022/04/22 04:50:56;;;;;;;13.90;11.27;;;10.20;99.90;;;;;;5119759;28;20031;-61
2022/04/22 04:53:25;;;;;;;15.60;11.48;;;10.30;99.90;;;;;;5119795;28;20023;-61
2022/04/22 04:55:53;;;;;;;15.88;11.63;;;10.20;99.90;;;;;;5119552;28;20023;-61
2022/04/22 04:58:21;;;;;;;14.82;11.82;;;10.30;99.90;;;;;;5119609;28;20055;-61
2022/04/22 05:00:48;;;;;;;14.73;11.50;;;10.30;99.90;;;;;;5119363;28;20096;-61
2022/04/22 05:03:14;;;;;;;16.75;11.95;;;10.30;99.90;;;;;;5119526;28;20027;-61
2022/04/22 05:05:41;;;;;;;14.50;11.80;;;10.30;99.90;;;;;;5119316;28;20070;-61
2022/04/22 05:08:07;;;;;;;17.10;11.93;;;10.30;99.90;;;;;;5119455;28;20024;-61
2022/04/22 05:10:34;;;;;;;14.40;11.32;;;10.20;99.90;;;;;;5101742;28;20409;-61
2022/04/22 05:13:01;;;;;;;14.15;11.38;;;10.10;99.90;;;;;;5119276;28;20023;-61
2022/04/22 05:15:27;;;;;;;18.33;11.75;;;10.20;99.90;;;;;;5119873;28;20296;-62
2022/04/22 05:17:55;;;;;;;17.70;11.50;;;10.30;99.90;;;;;;5119220;28;20043;-61
2022/04/22 05:20:25;;;;;;;16.27;11.90;;;10.30;99.90;;;;;;5119222;28;20023;-61
2022/04/22 05:22:52;;;;;;;15.55;11.65;;;10.50;99.90;;;;;;5119440;28;20268;-60
2022/04/22 05:25:19;;;;;;;14.20;11.70;;;10.40;99.90;;;;;;5119414;28;20328;-61
2022/04/22 05:27:45;;;;;;;14.18;11.43;;;10.40;99.90;;;;;;5118992;28;20119;-61
2022/04/22 05:32:57;;;;;;;15.80;11.45;;;10.50;99.90;;;;;;5118743;28;20402;-61
2022/04/22 05:35:28;;;;;;;14.77;11.57;;;10.50;99.90;;;;;;5119212;28;20311;-61
2022/04/22 05:37:58;;;;;;;14.88;11.77;;;10.50;99.90;;;;;;5117882;28;20387;-61
2022/04/22 05:40:27;;;;;;;15.10;12.18;;;10.50;99.90;;;;;;5118986;28;20032;-62
2022/04/22 05:42:53;;;;;;;14.55;11.55;;;10.50;99.90;;;;;;5117997;28;20020;-62
2022/04/22 05:45:20;;;;;;;15.23;12.45;;;10.50;99.90;;;;;;5118548;28;20215;-62
2022/04/22 05:47:47;;;;;;;15.32;12.48;;;10.60;99.90;;;;;;5118566;28;20032;-62
2022/04/22 05:50:14;;;;;;;14.50;11.95;;;10.70;99.90;;;;;;5118771;28;20024;-61
2022/04/22 05:52:41;;;;;;;16.58;12.48;;;10.70;99.90;;;;;;5117631;28;20047;-61
2022/04/22 05:55:09;;;;;;;16.92;11.85;;;10.70;99.90;;;;;;5117783;28;20043;-61
2022/04/22 05:57:36;;;;;;;14.70;11.82;;;10.70;99.90;;;;;;5118374;28;20350;-61
2022/04/22 06:00:12;;;;;;;15.95;11.90;;;10.80;99.90;;;;;;5118493;28;20371;-61
2022/04/22 06:02:42;;;;;;;17.67;12.60;;;11.10;99.90;;;;;;5118326;28;20027;-61
2022/04/22 06:05:13;;;;;;;13.18;11.27;;;11.10;99.90;;;;;;5100636;28;20051;-60
2022/04/22 06:07:40;;;;;;;15.32;11.52;;;11.00;99.90;;;;;;5118371;28;20323;-61
2022/04/22 06:12:54;;;;;;;17.45;12.52;;;11.10;99.90;;;;;;5118233;28;20107;-61
2022/04/22 06:15:21;;;;;;;17.30;12.10;;;11.10;99.90;;;;;;5117420;28;20397;-61
2022/04/22 06:17:47;;;;;;;17.70;12.32;;;11.10;99.90;;;;;;5118052;28;20036;-60
2022/04/22 06:20:13;;;;;;;15.50;10.85;;;11.00;99.90;;;;;;5118201;28;20032;-61
2022/04/22 06:22:39;;;;;;;16.42;12.25;;;11.10;99.90;;;;;;5117107;28;20035;-60
2022/04/22 06:25:06;;;;;;;13.73;11.00;;;11.40;99.90;;;;;;5118020;28;20023;-60
2022/04/22 06:27:38;;;;;;;16.08;12.45;;;11.50;99.90;;;;;;5117987;28;20035;-61
2022/04/22 06:30:05;;;;;;;14.93;12.13;;;11.60;99.90;;;;;;5117906;28;20020;-60
2022/04/22 06:32:31;;;;;;;15.00;12.10;;;11.60;99.90;;;;;;5117612;28;20273;-61
2022/04/22 06:34:57;;;;;;;16.33;12.00;;;11.70;99.90;;;;;;5117036;28;20278;-61
2022/04/22 06:37:23;;;;;;;18.17;12.80;;;11.70;99.90;;;;;;5117663;28;20035;-61
2022/04/22 06:48:05;;;;;;;16.55;12.95;;;12.00;99.90;;;;;;5117284;28;20046;-62
2022/04/22 06:50:31;;;;;;;18.27;12.18;;;12.20;99.90;;;;;;5117068;28;20032;-60
2022/04/22 06:52:57;;;;;;;14.90;11.70;;;12.20;99.90;;;;;;5117547;28;20035;-60
2022/04/22 06:55:24;;;;;;;17.73;13.43;;;12.40;99.90;;;;;;5117509;28;20023;-60
2022/04/22 06:57:50;;;;;;;18.95;12.07;;;12.50;99.90;;;;;;5116609;28;20394;-60
2022/04/22 07:00:17;;;;;;;17.33;13.15;;;12.30;99.90;;;;;;5116839;28;20035;-60
2022/04/22 07:02:44;;;;;;;18.15;12.40;;;12.20;99.90;;;;;;5116772;28;20035;-60
2022/04/22 07:05:10;;;;;;;16.90;12.98;;;12.20;99.90;;;;;;5116800;28;20074;-60
2022/04/22 07:07:36;;;;;;;17.25;12.77;;;12.30;99.90;;;;;;5117243;28;20031;-60
2022/04/22 07:10:03;;;;;;;16.02;13.00;;;12.40;99.90;;;;;;5116690;28;20036;-60
2022/04/22 07:12:32;;;;;;;13.32;11.63;;;12.70;99.90;;;;;;5117215;28;20291;-60
2022/04/22 07:15:06;;;;;;;14.30;12.07;;;13.00;99.90;;;;;;5116683;28;20035;-61
2022/04/22 07:17:36;;;;;;;18.30;12.63;;;13.10;99.90;;;;;;5117319;28;20118;-61
2022/04/22 07:20:09;;;;;;;18.13;12.15;;;13.00;99.90;;;;;;5117249;28;20031;-61
2022/04/22 07:22:36;;;;;;;;;;;13.00;99.90;;;;;;5117624;28;20060;-61
2022/04/22 07:25:02;;;;;;;15.38;12.30;;;13.10;99.90;;;;;;5117206;28;19995;-61
2022/04/22 07:27:30;;;;;;;16.45;12.45;;;13.00;99.90;;;;;;5116997;28;20043;-61
2022/04/22 07:29:58;;;;;;;16.48;12.82;;;12.90;99.90;;;;;;5116485;28;20024;-61
2022/04/22 07:32:25;;;;;;;16.50;12.98;;;12.90;99.90;;;;;;5117213;28;20047;-61
2022/04/22 07:34:51;;;;;;;15.82;12.30;;;13.20;99.90;;;;;;5099528;28;20031;-61
2022/04/22 07:37:18;;;;;;;15.88;12.60;;;13.40;99.90;;;;;;5117028;28;20020;-60
2022/04/22 07:39:44;;;;;;;18.30;13.50;;;13.60;99.90;;;;;;5116293;28;20028;-61
2022/04/22 07:42:15;;;;;;;17.83;13.18;;;13.90;99.90;;;;;;5116954;28;20127;-60
2022/04/22 07:47:33;;;;;;;17.38;13.07;;;13.80;99.90;;;;;;5116813;28;20046;-60
2022/04/22 07:50:02;;;;;;;17.55;12.85;;;14.00;99.90;;;;;;5117532;28;20044;-60
2022/04/22 07:52:28;;;;;;;16.60;13.57;;;14.00;99.90;;;;;;5116924;28;20031;-61
2022/04/22 07:54:54;;;;;;;16.35;12.20;;;13.90;99.90;;;;;;5116159;28;20369;-61
2022/04/22 07:57:21;;;;;;;19.08;13.10;;;14.00;99.90;;;;;;5116921;28;20039;-61
2022/04/22 07:59:47;;;;;;;15.32;12.80;;;14.10;99.90;;;;;;5116967;28;20020;-61
2022/04/22 08:02:13;;;;;;;15.80;12.98;;;13.90;99.90;;;;;;5120655;28;20100;-61
2022/04/22 08:04:39;;;;;;;23.20;13.38;;;13.90;99.90;;;;;;5120715;28;20043;-60
2022/04/22 08:07:06;;;;;;;17.10;13.57;;;14.00;99.90;;;;;;5120435;28;20466;-61
2022/04/22 08:09:32;;;;;;;17.13;13.55;;;14.10;99.90;;;;;;5120910;28;20130;-61
2022/04/22 08:11:57;;;;;;;19.40;13.90;;;14.20;99.90;;;;;;5120030;28;20123;-60
2022/04/22 08:14:24;;;;;;;17.15;13.65;;;14.30;99.90;;;;;;5120964;28;20341;-61
2022/04/22 08:16:50;;;;;;;19.35;14.35;;;14.40;99.90;;;;;;5120439;28;20337;-60
2022/04/22 08:19:16;;;;;;;18.48;14.80;;;14.70;99.90;;;;;;5120447;28;20028;-61
2022/04/22 08:21:42;;;;;;;18.85;14.45;;;14.50;99.90;;;;;;5120333;28;20042;-59
2022/04/22 08:24:10;;;;;;;17.65;14.35;;;14.40;99.90;;;;;;5120551;28;20047;-60
2022/04/22 08:26:37;;;;;;;18.05;14.50;;;14.40;99.90;;;;;;5120161;28;20032;-59
2022/04/22 08:29:03;;;;;;;20.98;14.93;;;14.40;99.90;;;;;;5120258;28;20031;-59
2022/04/22 08:31:29;;;;;;;20.48;14.48;;;14.60;99.90;;;;;;5120140;28;20016;-60
2022/04/22 08:33:57;;;;;;;19.02;14.65;;;14.70;99.90;;;;;;5120257;28;20291;-61
2022/04/22 08:36:32;;;;;;;20.33;15.00;;;14.90;99.90;;;;;;5120087;28;20027;-60
2022/04/22 08:38:58;;;;;;;18.30;14.85;;;14.90;99.90;;;;;;5120111;28;20023;-60
2022/04/22 08:41:24;;;;;;;18.40;14.57;;;15.30;99.90;;;;;;5119123;28;20040;-61
2022/04/22 08:43:51;;;;;;;19.77;14.18;;;15.10;99.90;;;;;;5120055;28;20035;-61
2022/04/22 08:51:48;;;;;;;18.80;13.82;;;15.20;99.90;;;;;;5120097;28;20093;-60
2022/04/22 08:54:14;;;;;;;17.10;12.43;;;15.20;99.90;;;;;;5118720;28;20012;-60
2022/04/22 08:56:42;;;;;;;14.95;11.95;;;15.30;99.90;;;;;;5101793;28;20054;-61
2022/04/22 08:59:09;;;;;;;14.50;12.20;;;15.30;99.90;;;;;;5119646;28;20036;-60
2022/04/22 09:01:37;;;;;;;15.77;12.02;;;15.30;99.90;;;;;;5119567;28;20054;-61
2022/04/22 09:04:06;;;;;;;15.35;12.18;;;15.40;99.90;;;;;;5119566;28;20138;-61
2022/04/22 09:06:33;;;;;;;14.68;11.73;;;15.40;99.90;;;;;;5119435;28;20028;-59
2022/04/22 09:08:59;;;;;;;13.82;11.18;;;15.40;99.90;;;;;;5119576;28;20039;-60
2022/04/22 09:11:25;;;;;;;14.30;9.98;;;15.50;99.90;;;;;;5118596;28;20292;-60
2022/04/22 09:13:51;;;;;;;13.68;11.30;;;15.40;99.90;;;;;;5118482;28;20027;-59
2022/04/22 09:16:21;;;;;;;12.23;10.55;;;15.50;99.90;;;;;;5119406;28;20032;-60
2022/04/22 09:18:57;;;;;;;13.90;10.15;;;15.50;99.90;;;;;;5119296;28;20448;-60
2022/04/22 09:21:24;;;;;;;14.00;10.43;;;15.50;99.90;;;;;;5118584;28;20180;-60
2022/04/22 09:23:50;;;;;;;13.05;9.50;;;15.70;99.90;;;;;;5101861;28;20358;-61
2022/04/22 09:26:24;;;;;;;9.85;8.55;;;16.00;99.90;;;;;;5118597;28;20039;-60
2022/04/22 09:28:57;;;;;;;12.88;8.77;;;16.00;99.90;;;;;;5119057;28;20043;-61
2022/04/22 09:31:25;;;;;;;11.65;9.32;;;16.30;99.90;;;;;;5118259;28;20053;-61
2022/04/22 09:33:51;;;;;;;12.02;9.93;;;16.60;99.90;;;;;;5119034;28;20040;-60
2022/04/22 09:45:15;;;;;;;11.45;9.90;;;16.50;99.90;;;;;;5084679;28;20036;-62
2022/04/22 09:47:41;;;;;;;12.57;10.75;;;16.60;99.90;;;;;;5118641;28;20395;-61
2022/04/22 09:50:11;;;;;;;12.50;10.23;;;16.90;99.90;;;;;;5118706;28;20054;-61
2022/04/22 09:52:46;;;;;;;11.82;10.63;;;17.30;99.90;;;;;;5117762;28;20085;-61
2022/04/22 09:55:16;;;;;;;13.05;11.68;;;17.10;99.90;;;;;;5118851;28;20382;-60
2022/04/22 09:57:55;;;;;;;12.93;11.50;;;16.80;99.90;;;;;;5117695;28;20028;-60
2022/04/22 10:00:26;;;;;;;14.00;11.48;;;16.90;99.90;;;;;;5117632;28;20118;-60
2022/04/22 10:02:53;;;;;;;16.48;10.23;;;16.70;99.90;;;;;;5118264;28;20085;-60
2022/04/22 10:05:21;;;;;;;11.85;10.57;;;16.70;99.90;;;;;;5117533;28;20387;-60
2022/04/22 10:07:52;;;;;;;10.98;9.15;;;16.90;99.90;;;;;;5118127;28;20031;-60
2022/04/22 10:10:23;;;;;;;11.50;9.52;;;17.00;99.90;;;;;;5118926;28;20372;-60
2022/04/22 10:12:49;;;;;;;12.40;10.73;;;17.00;99.90;;;;;;5118124;28;20276;-60
2022/04/22 10:15:19;;;;;;;12.85;10.05;;;16.80;99.90;;;;;;5118130;28;20103;-60
2022/04/22 10:17:47;;;;;;;15.10;11.20;;;16.80;99.90;;;;;;5117975;28;20047;-60
2022/04/22 10:20:14;;;;;;;12.38;11.07;;;16.70;99.90;;;;;;5118077;28;20024;-60
2022/04/22 10:22:41;;;;;;;15.65;12.50;;;16.70;99.90;;;;;;5117814;28;20046;-61
2022/04/22 10:25:09;;;;;;;15.20;12.52;;;16.60;99.90;;;;;;5117094;28;20027;-61
2022/04/22 10:27:39;;;;;;;14.50;13.00;;;16.50;99.90;;;;;;5117837;28;20036;-61
2022/04/22 10:30:11;;;;;;;14.68;13.18;;;16.40;99.90;;;;;;5117861;28;20027;-60
2022/04/22 10:32:41;;;;;;;15.07;13.53;;;16.30;99.90;;;;;;5117711;28;20023;-62
2022/04/22 10:35:09;;;;;;;17.15;12.85;;;16.20;99.90;;;;;;5117038;28;20270;-61
2022/04/22 10:37:38;;;;;;;14.93;13.40;;;15.90;99.90;;;;;;5117850;28;20303;-61
2022/04/22 10:40:06;;;;;;;15.55;13.30;;;15.90;99.90;;;;;;5117655;28;20032;-61
2022/04/22 10:42:37;;;;;;;14.45;12.95;;;16.00;99.90;;;;;;5117653;28;20353;-62
2022/04/22 10:47:50;;;;;;;12.10;10.93;;;15.90;99.90;;;;;;5117573;28;20043;-62
2022/04/22 10:50:33;;;;;;;11.40;10.30;;;15.90;99.90;;;;;;5117636;28;20024;-61
2022/04/22 10:53:03;;;;;;;;;;;15.70;99.90;;;;;;5117944;28;20080;-62
2022/04/22 10:55:37;;;;;;;11.93;10.38;;;15.60;99.90;;;;;;5117785;28;19977;-62
2022/04/22 10:58:21;;;;;;;10.02;9.02;;;15.50;99.90;;;;;;5117889;28;20042;-62
2022/04/22 11:00:48;;;;;;;9.45;8.60;;;15.80;99.90;;;;;;5117493;28;20337;-61
2022/04/22 11:03:22;;;;;;;10.60;9.48;;;16.00;99.90;;;;;;5117496;28;20039;-62
2022/04/22 11:05:51;;;;;;;10.52;8.85;;;16.00;99.90;;;;;;5117353;28;20055;-61
2022/04/22 11:08:29;;;;;;;11.30;9.25;;;16.00;99.90;;;;;;5116658;28;20019;-61
2022/04/22 11:10:55;;;;;;;11.07;9.20;;;16.10;99.90;;;;;;5117849;28;20403;-61
2022/04/22 11:13:38;;;;;;;13.88;9.38;;;16.10;99.90;;;;;;5117370;28;20091;-60
2022/04/22 11:16:24;;;;;;;10.23;9.18;;;16.20;99.90;;;;;;5117923;28;20080;-61
2022/04/22 11:19:10;;;;;;;10.02;9.13;;;16.50;99.90;;;;;;5116609;28;20035;-61
2022/04/22 11:21:39;;;;;;;12.50;9.30;;;17.00;99.90;;;;;;5117595;28;20027;-61
2022/04/22 11:24:17;;;;;;;11.15;9.60;;;17.10;99.90;;;;;;5116506;28;20030;-61
2022/04/22 11:26:44;;;;;;;11.95;9.02;;;17.30;99.90;;;;;;5117350;28;20287;-61
2022/04/22 11:29:10;;;;;;;10.57;9.35;;;17.30;99.90;;;;;;5117189;28;20047;-61
2022/04/22 11:31:36;;;;;;;11.10;9.80;;;17.10;99.90;;;;;;5117176;28;20035;-61
2022/04/22 11:34:11;;;;;;;11.20;10.10;;;16.80;99.90;;;;;;5117129;28;20035;-60
2022/04/22 11:36:46;;;;;;;11.15;9.93;;;16.90;99.90;;;;;;5102503;28;20352;-60
2022/04/22 11:39:20;;;;;;;11.27;10.00;;;16.50;99.90;;;;;;5121379;28;20024;-63
2022/04/22 11:41:58;;;;;;;13.55;10.90;;;16.40;99.90;;;;;;5120836;28;20111;-60
2022/04/22 11:44:25;;;;;;;12.27;11.02;;;16.10;99.90;;;;;;5121208;28;20028;-60
2022/04/22 11:46:52;;;;;;;12.85;11.15;;;16.30;99.90;;;;;;5120709;28;20027;-61
2022/04/22 11:49:19;;;;;;;13.30;12.10;;;16.40;99.90;;;;;;5121032;28;20032;-60
2022/04/22 11:51:45;;;;;;;12.15;11.05;;;16.70;99.90;;;;;;5103230;28;20024;-62
2022/04/22 11:54:11;;;;;;;15.18;11.25;;;17.00;99.90;;;;;;5120498;28;20060;-61
2022/04/22 11:56:37;;;;;;;12.88;11.57;;;17.40;99.90;;;;;;5120966;28;20027;-61
2022/04/22 11:59:03;;;;;;;13.40;12.00;;;17.30;99.90;;;;;;5121099;28;20284;-61
2022/04/22 12:10:06;;;;;;;12.50;11.50;;;17.50;99.90;;;;;;5091359;28;20032;-60
2022/04/22 12:12:32;;;;;;;13.32;12.05;;;18.00;99.90;;;;;;5120648;28;20027;-61
2022/04/22 12:15:00;;;;;;;12.40;11.30;;;18.10;99.90;;;;;;5120629;28;20024;-61
2022/04/22 12:17:26;;;;;;;19.00;12.63;;;18.30;99.90;;;;;;5120827;28;20028;-61
2022/04/22 12:19:52;;;;;;;12.65;11.45;;;18.60;99.90;;;;;;5119700;28;20032;-61
2022/04/22 12:22:18;;;;;;;12.07;10.88;;;18.50;99.90;;;;;;5120669;28;20027;-61
2022/04/22 12:25:05;;;;;;;13.60;11.63;;;18.20;99.90;;;;;;5120410;28;20028;-62
2022/04/22 12:27:31;;;;;;;13.68;11.52;;;18.00;99.90;;;;;;5120541;28;20276;-61
2022/04/22 12:30:05;;;;;;;12.55;11.32;;;18.40;99.90;;;;;;5119556;28;20100;-61
2022/04/22 12:32:31;;;;;;;12.80;11.55;;;18.20;99.90;;;;;;5120136;28;20110;-61
2022/04/22 12:35:17;;;;;;;13.10;11.52;;;18.10;99.90;;;;;;5120257;28;20070;-61
2022/04/22 12:37:54;;;;;;;13.35;12.05;;;18.10;99.90;;;;;;5120106;28;20088;-61
2022/04/22 12:40:26;;;;;;;12.98;11.68;;;18.30;99.90;;;;;;5120354;28;20043;-62
2022/04/22 12:42:52;;;;;;;12.60;11.45;;;18.40;99.90;;;;;;5120036;28;20027;-61
2022/04/22 12:54:07;;;;;;;11.13;10.13;;;18.00;99.90;;;;;;5120177;28;20050;-60
2022/04/22 12:56:36;;;;;;;10.98;9.90;;;18.30;99.90;;;;;;5119108;28;20395;-60
2022/04/22 12:59:03;;;;;;;11.07;9.73;;;19.30;99.90;;;;;;5119733;28;20027;-60
2022/04/22 13:01:39;;;;;;;11.25;10.05;;;20.00;99.90;;;;;;5119011;28;20027;-60
2022/04/22 13:04:07;;;;;;;11.30;10.20;;;20.40;99.90;;;;;;5119943;28;20028;-61
2022/04/22 13:06:43;;;;;;;11.35;10.25;;;20.30;99.90;;;;;;5119457;28;20024;-61
2022/04/22 13:09:10;;;;;;;11.60;10.40;;;19.80;99.90;;;;;;5119770;28;20031;-60
2022/04/22 13:11:37;;;;;;;11.05;9.90;;;19.80;99.90;;;;;;5118674;28;20087;-61
2022/04/22 13:14:04;;;;;;;11.50;10.45;;;19.60;99.90;;;;;;5119327;28;20020;-60
2022/04/22 13:16:30;;;;;;;12.23;11.02;;;19.90;99.90;;;;;;5119376;28;20125;-60
2022/04/22 13:18:57;;;;;;;12.57;11.27;;;20.10;99.90;;;;;;5119360;28;20287;-61
2022/04/22 13:21:23;;;;;;;11.38;10.27;;;20.40;99.90;;;;;;5119311;27;20046;-60
2022/04/22 13:23:50;;;;;;;12.10;10.63;;;20.40;99.90;;;;;;5119193;28;20028;-61
2022/04/22 13:26:17;;;;;;;11.43;10.07;;;20.60;99.90;;;;;;5119114;28;20046;-61
2022/04/22 13:28:43;;;;;;;10.10;9.13;;;20.80;99.90;;;;;;5118385;28;20298;-60
2022/04/22 13:31:09;;;;;;;12.18;9.27;;;20.90;99.90;;;;;;5118854;28;20028;-61
2022/04/22 13:33:35;;;;;;;10.85;9.73;;;20.60;99.90;;;;;;5119054;28;20098;-61
2022/04/22 13:36:04;;;;;;;11.43;8.98;;;20.70;99.90;;;;;;5119012;28;20107;-62
2022/04/22 13:38:32;;;;;;;9.77;8.95;;;20.50;99.90;;;;;;5118150;28;20036;-60
2022/04/22 13:40:58;;;;;;;9.85;8.88;;;20.20;99.90;;;;;;5118800;28;20069;-60
2022/04/22 13:43:31;;;;;;;10.98;9.38;;;20.50;99.90;;;;;;5118875;28;20043;-60
2022/04/22 13:54:15;;;;;;;9.15;8.45;;;20.70;99.90;;;;;;5118611;28;20442;-61
2022/04/22 13:56:41;;;;;;;9.23;8.32;;;21.60;99.90;;;;;;5117797;28;20078;-61
2022/04/22 13:59:06;;;;;;;7.85;7.25;;;22.10;99.80;;;;;;5118464;28;20024;-60